sensor_id;sensor_type;location;lat;lon;timestamp;P1;durP1;ratioP1;P2;durP2;ratioP2
50102;SDS011;35993;52.604;10.078;2022-10-15T00:01:39;8.50;;;5.80;;
50102;SDS011;35993;52.604;10.078;2022-10-15T00:04:05;9.90;;;6.25;;
50102;SDS011;35993;52.604;10.078;2022-10-15T00:06:50;12.07;;;6.45;;
50102;SDS011;35993;52.604;10.078;2022-10-15T00:09:15;10.50;;;6.88;;
50102;SDS011;35993;52.604;10.078;2022-10-15T00:11:41;8.68;;;5.95;;
50102;SDS011;35993;52.604;10.078;2022-10-15T00:14:06;10.90;;;5.95;;
50102;SDS011;35993;52.604;10.078;2022-10-15T00:16:32;10.77;;;6.65;;
50102;SDS011;35993;52.604;10.078;2022-10-15T00:18:58;8.45;;;6.15;;
50102;SDS011;35993;52.604;10.078;2022-10-15T00:21:24;9.82;;;6.90;;
50102;SDS011;35993;52.604;10.078;2022-10-15T00:23:50;9.88;;;6.68;;
50102;SDS011;35993;52.604;10.078;2022-10-15T00:26:17;11.73;;;6.90;;
50102;SDS011;35993;52.604;10.078;2022-10-15T00:28:44;10.15;;;6.88;;
50102;SDS011;35993;52.604;10.078;2022-10-15T00:31:15;11.15;;;7.00;;
50102;SDS011;35993;52.604;10.078;2022-10-15T00:33:47;13.98;;;7.43;;
50102;SDS011;35993;52.604;10.078;2022-10-15T00:36:24;9.93;;;6.25;;
50102;SDS011;35993;52.604;10.078;2022-10-15T00:38:53;12.35;;;6.40;;
50102;SDS011;35993;52.604;10.078;2022-10-15T00:41:29;10.70;;;6.90;;
50102;SDS011;35993;52.604;10.078;2022-10-15T00:43:57;11.57;;;7.22;;
50102;SDS011;35993;52.604;10.078;2022-10-15T00:46:43;10.00;;;6.30;;
50102;SDS011;35993;52.604;10.078;2022-10-15T00:51:47;10.45;;;6.85;;
50102;SDS011;35993;52.604;10.078;2022-10-15T00:54:16;11.90;;;7.45;;
50102;SDS011;35993;52.604;10.078;2022-10-15T00:56:44;11.52;;;7.20;;
50102;SDS011;35993;52.604;10.078;2022-10-15T00:59:12;13.13;;;8.07;;
50102;SDS011;35993;52.604;10.078;2022-10-15T01:01:38;12.23;;;7.70;;
50102;SDS011;35993;52.604;10.078;2022-10-15T01:04:04;10.38;;;7.25;;
50102;SDS011;35993;52.604;10.078;2022-10-15T01:06:38;10.55;;;7.93;;
50102;SDS011;35993;52.604;10.078;2022-10-15T01:09:04;11.43;;;7.85;;
50102;SDS011;35993;52.604;10.078;2022-10-15T01:11:38;9.90;;;7.32;;
50102;SDS011;35993;52.604;10.078;2022-10-15T01:17:25;14.35;;;8.55;;
50102;SDS011;35993;52.604;10.078;2022-10-15T01:20:08;14.35;;;8.80;;
50102;SDS011;35993;52.604;10.078;2022-10-15T01:28:42;12.52;;;8.73;;
50102;SDS011;35993;52.604;10.078;2022-10-15T01:31:00;14.27;;;9.13;;
50102;SDS011;35993;52.604;10.078;2022-10-15T01:33:41;13.38;;;9.13;;
50102;SDS011;35993;52.604;10.078;2022-10-15T01:36:15;13.52;;;9.07;;
50102;SDS011;35993;52.604;10.078;2022-10-15T01:44:12;15.60;;;9.70;;
50102;SDS011;35993;52.604;10.078;2022-10-15T01:46:56;15.10;;;10.23;;
50102;SDS011;35993;52.604;10.078;2022-10-15T01:49:24;15.18;;;9.95;;
50102;SDS011;35993;52.604;10.078;2022-10-15T01:51:55;15.20;;;10.57;;
50102;SDS011;35993;52.604;10.078;2022-10-15T01:54:24;16.92;;;10.40;;
50102;SDS011;35993;52.604;10.078;2022-10-15T01:56:52;14.20;;;9.52;;
50102;SDS011;35993;52.604;10.078;2022-10-15T01:59:30;15.35;;;10.25;;
50102;SDS011;35993;52.604;10.078;2022-10-15T02:01:58;16.25;;;10.77;;
50102;SDS011;35993;52.604;10.078;2022-10-15T02:04:25;15.60;;;10.35;;
50102;SDS011;35993;52.604;10.078;2022-10-15T02:07:02;14.60;;;9.52;;
50102;SDS011;35993;52.604;10.078;2022-10-15T02:15:10;14.43;;;9.50;;
50102;SDS011;35993;52.604;10.078;2022-10-15T02:17:53;14.73;;;9.90;;
50102;SDS011;35993;52.604;10.078;2022-10-15T02:23:18;13.75;;;9.15;;
50102;SDS011;35993;52.604;10.078;2022-10-15T02:25:59;13.40;;;8.88;;
50102;SDS011;35993;52.604;10.078;2022-10-15T02:28:29;15.07;;;9.73;;
50102;SDS011;35993;52.604;10.078;2022-10-15T02:30:58;13.93;;;8.95;;
50102;SDS011;35993;52.604;10.078;2022-10-15T02:33:26;13.32;;;9.05;;
50102;SDS011;35993;52.604;10.078;2022-10-15T02:36:21;13.63;;;9.32;;
50102;SDS011;35993;52.604;10.078;2022-10-15T02:38:47;14.65;;;9.13;;
50102;SDS011;35993;52.604;10.078;2022-10-15T02:41:15;12.90;;;8.90;;
50102;SDS011;35993;52.604;10.078;2022-10-15T02:43:41;12.85;;;8.77;;
50102;SDS011;35993;52.604;10.078;2022-10-15T02:46:08;13.93;;;9.15;;
50102;SDS011;35993;52.604;10.078;2022-10-15T02:48:36;13.00;;;9.25;;
50102;SDS011;35993;52.604;10.078;2022-10-15T02:51:01;12.93;;;8.27;;
50102;SDS011;35993;52.604;10.078;2022-10-15T02:53:30;12.65;;;8.40;;
50102;SDS011;35993;52.604;10.078;2022-10-15T02:55:56;13.02;;;8.98;;
50102;SDS011;35993;52.604;10.078;2022-10-15T02:58:22;15.38;;;9.32;;
50102;SDS011;35993;52.604;10.078;2022-10-15T03:00:49;12.88;;;8.80;;
50102;SDS011;35993;52.604;10.078;2022-10-15T03:03:15;14.13;;;8.85;;
50102;SDS011;35993;52.604;10.078;2022-10-15T03:05:43;14.80;;;9.60;;
50102;SDS011;35993;52.604;10.078;2022-10-15T03:08:08;14.45;;;9.90;;
50102;SDS011;35993;52.604;10.078;2022-10-15T03:10:34;15.07;;;9.77;;
50102;SDS011;35993;52.604;10.078;2022-10-15T03:13:03;14.25;;;9.48;;
50102;SDS011;35993;52.604;10.078;2022-10-15T03:15:33;14.43;;;9.75;;
50102;SDS011;35993;52.604;10.078;2022-10-15T03:18:01;13.40;;;9.63;;
50102;SDS011;35993;52.604;10.078;2022-10-15T03:20:27;14.70;;;9.75;;
50102;SDS011;35993;52.604;10.078;2022-10-15T03:23:19;14.48;;;9.63;;
50102;SDS011;35993;52.604;10.078;2022-10-15T03:25:44;16.50;;;10.82;;
50102;SDS011;35993;52.604;10.078;2022-10-15T03:28:20;15.10;;;10.20;;
50102;SDS011;35993;52.604;10.078;2022-10-15T03:30:46;16.70;;;10.50;;
50102;SDS011;35993;52.604;10.078;2022-10-15T03:33:13;13.25;;;9.55;;
50102;SDS011;35993;52.604;10.078;2022-10-15T03:35:39;13.98;;;9.50;;
50102;SDS011;35993;52.604;10.078;2022-10-15T03:38:05;14.00;;;9.32;;
50102;SDS011;35993;52.604;10.078;2022-10-15T03:40:32;14.82;;;8.70;;
50102;SDS011;35993;52.604;10.078;2022-10-15T03:43:09;14.38;;;9.18;;
50102;SDS011;35993;52.604;10.078;2022-10-15T03:45:35;14.77;;;9.18;;
50102;SDS011;35993;52.604;10.078;2022-10-15T03:48:13;13.80;;;9.18;;
50102;SDS011;35993;52.604;10.078;2022-10-15T03:50:39;15.93;;;8.43;;
50102;SDS011;35993;52.604;10.078;2022-10-15T03:53:05;15.90;;;8.48;;
50102;SDS011;35993;52.604;10.078;2022-10-15T03:55:31;13.05;;;8.30;;
50102;SDS011;35993;52.604;10.078;2022-10-15T03:57:57;14.85;;;7.95;;
50102;SDS011;35993;52.604;10.078;2022-10-15T04:00:23;12.88;;;8.13;;
50102;SDS011;35993;52.604;10.078;2022-10-15T04:02:52;13.00;;;8.65;;
50102;SDS011;35993;52.604;10.078;2022-10-15T04:05:23;16.15;;;9.45;;
50102;SDS011;35993;52.604;10.078;2022-10-15T04:07:53;26.50;;;10.27;;
50102;SDS011;35993;52.604;10.078;2022-10-15T04:10:20;21.33;;;9.75;;
50102;SDS011;35993;52.604;10.078;2022-10-15T04:12:46;20.80;;;9.55;;
50102;SDS011;35993;52.604;10.078;2022-10-15T04:15:14;17.98;;;9.98;;
50102;SDS011;35993;52.604;10.078;2022-10-15T04:17:47;19.13;;;9.35;;
50102;SDS011;35993;52.604;10.078;2022-10-15T04:20:13;18.27;;;10.48;;
50102;SDS011;35993;52.604;10.078;2022-10-15T04:22:42;15.93;;;9.65;;
50102;SDS011;35993;52.604;10.078;2022-10-15T04:25:07;14.68;;;8.90;;
50102;SDS011;35993;52.604;10.078;2022-10-15T04:27:33;14.88;;;9.52;;
50102;SDS011;35993;52.604;10.078;2022-10-15T04:30:10;15.60;;;9.18;;
50102;SDS011;35993;52.604;10.078;2022-10-15T04:32:41;19.45;;;9.35;;
50102;SDS011;35993;52.604;10.078;2022-10-15T04:35:07;16.80;;;9.05;;
50102;SDS011;35993;52.604;10.078;2022-10-15T04:38:02;15.75;;;9.80;;
50102;SDS011;35993;52.604;10.078;2022-10-15T04:40:48;15.52;;;9.13;;
50102;SDS011;35993;52.604;10.078;2022-10-15T04:43:14;14.60;;;9.23;;
50102;SDS011;35993;52.604;10.078;2022-10-15T04:45:40;14.55;;;9.73;;
50102;SDS011;35993;52.604;10.078;2022-10-15T04:48:29;15.60;;;10.13;;
50102;SDS011;35993;52.604;10.078;2022-10-15T04:51:07;14.57;;;9.55;;
50102;SDS011;35993;52.604;10.078;2022-10-15T04:53:58;18.30;;;10.45;;
50102;SDS011;35993;52.604;10.078;2022-10-15T04:56:26;16.30;;;10.00;;
50102;SDS011;35993;52.604;10.078;2022-10-15T04:58:52;16.83;;;10.07;;
50102;SDS011;35993;52.604;10.078;2022-10-15T05:01:19;16.42;;;10.45;;
50102;SDS011;35993;52.604;10.078;2022-10-15T05:03:59;14.90;;;9.30;;
50102;SDS011;35993;52.604;10.078;2022-10-15T05:06:26;15.93;;;10.38;;
50102;SDS011;35993;52.604;10.078;2022-10-15T05:08:56;15.20;;;9.65;;
50102;SDS011;35993;52.604;10.078;2022-10-15T05:11:28;17.45;;;10.52;;
50102;SDS011;35993;52.604;10.078;2022-10-15T05:13:56;16.35;;;10.63;;
50102;SDS011;35993;52.604;10.078;2022-10-15T05:16:24;17.80;;;10.38;;
50102;SDS011;35993;52.604;10.078;2022-10-15T05:18:54;19.08;;;11.40;;
50102;SDS011;35993;52.604;10.078;2022-10-15T05:21:22;18.85;;;10.48;;
50102;SDS011;35993;52.604;10.078;2022-10-15T05:23:55;17.50;;;10.38;;
50102;SDS011;35993;52.604;10.078;2022-10-15T05:26:47;17.63;;;10.50;;
50102;SDS011;35993;52.604;10.078;2022-10-15T05:29:14;18.05;;;11.10;;
50102;SDS011;35993;52.604;10.078;2022-10-15T05:31:39;18.48;;;11.10;;
50102;SDS011;35993;52.604;10.078;2022-10-15T05:34:12;16.85;;;10.93;;
50102;SDS011;35993;52.604;10.078;2022-10-15T05:36:50;16.60;;;10.10;;
50102;SDS011;35993;52.604;10.078;2022-10-15T05:39:16;16.77;;;10.43;;
50102;SDS011;35993;52.604;10.078;2022-10-15T05:41:47;18.80;;;10.27;;
50102;SDS011;35993;52.604;10.078;2022-10-15T05:44:13;18.02;;;11.02;;
50102;SDS011;35993;52.604;10.078;2022-10-15T05:46:39;18.40;;;11.02;;
50102;SDS011;35993;52.604;10.078;2022-10-15T05:49:05;17.95;;;10.27;;
50102;SDS011;35993;52.604;10.078;2022-10-15T05:51:45;16.50;;;10.30;;
50102;SDS011;35993;52.604;10.078;2022-10-15T05:54:18;17.02;;;10.55;;
50102;SDS011;35993;52.604;10.078;2022-10-15T05:56:43;18.02;;;10.93;;
50102;SDS011;35993;52.604;10.078;2022-10-15T05:59:09;19.73;;;11.25;;
50102;SDS011;35993;52.604;10.078;2022-10-15T06:01:37;22.17;;;12.23;;
50102;SDS011;35993;52.604;10.078;2022-10-15T06:04:02;21.40;;;12.50;;
50102;SDS011;35993;52.604;10.078;2022-10-15T06:06:29;20.80;;;12.45;;
50102;SDS011;35993;52.604;10.078;2022-10-15T06:08:54;23.05;;;12.45;;
50102;SDS011;35993;52.604;10.078;2022-10-15T06:11:22;24.23;;;13.05;;
50102;SDS011;35993;52.604;10.078;2022-10-15T06:13:48;29.05;;;15.13;;
50102;SDS011;35993;52.604;10.078;2022-10-15T06:16:13;26.02;;;14.52;;
50102;SDS011;35993;52.604;10.078;2022-10-15T06:18:43;28.40;;;15.05;;
50102;SDS011;35993;52.604;10.078;2022-10-15T06:21:08;30.25;;;15.40;;
50102;SDS011;35993;52.604;10.078;2022-10-15T06:23:36;30.15;;;15.73;;
50102;SDS011;35993;52.604;10.078;2022-10-15T06:26:05;34.53;;;16.95;;
50102;SDS011;35993;52.604;10.078;2022-10-15T06:28:32;29.25;;;14.75;;
50102;SDS011;35993;52.604;10.078;2022-10-15T06:30:59;37.50;;;16.58;;
50102;SDS011;35993;52.604;10.078;2022-10-15T06:33:28;36.05;;;16.85;;
50102;SDS011;35993;52.604;10.078;2022-10-15T06:35:59;34.17;;;16.80;;
50102;SDS011;35993;52.604;10.078;2022-10-15T06:38:25;38.55;;;17.63;;
50102;SDS011;35993;52.604;10.078;2022-10-15T06:40:51;37.60;;;18.50;;
50102;SDS011;35993;52.604;10.078;2022-10-15T06:43:16;42.13;;;18.38;;
50102;SDS011;35993;52.604;10.078;2022-10-15T06:45:45;39.17;;;18.35;;
50102;SDS011;35993;52.604;10.078;2022-10-15T06:48:16;39.67;;;19.00;;
50102;SDS011;35993;52.604;10.078;2022-10-15T06:50:50;39.78;;;18.13;;
50102;SDS011;35993;52.604;10.078;2022-10-15T06:53:19;39.85;;;18.33;;
50102;SDS011;35993;52.604;10.078;2022-10-15T06:55:44;41.72;;;18.65;;
50102;SDS011;35993;52.604;10.078;2022-10-15T06:58:10;36.13;;;16.92;;
50102;SDS011;35993;52.604;10.078;2022-10-15T07:00:35;43.03;;;18.85;;
50102;SDS011;35993;52.604;10.078;2022-10-15T07:03:05;40.00;;;17.92;;
50102;SDS011;35993;52.604;10.078;2022-10-15T07:05:31;42.75;;;18.42;;
50102;SDS011;35993;52.604;10.078;2022-10-15T07:07:58;45.78;;;18.30;;
50102;SDS011;35993;52.604;10.078;2022-10-15T07:10:24;42.25;;;17.95;;
50102;SDS011;35993;52.604;10.078;2022-10-15T07:12:51;44.90;;;17.40;;
50102;SDS011;35993;52.604;10.078;2022-10-15T07:15:19;48.08;;;18.23;;
50102;SDS011;35993;52.604;10.078;2022-10-15T07:17:49;49.78;;;17.60;;
50102;SDS011;35993;52.604;10.078;2022-10-15T07:20:16;49.38;;;18.50;;
50102;SDS011;35993;52.604;10.078;2022-10-15T07:22:57;45.70;;;18.00;;
50102;SDS011;35993;52.604;10.078;2022-10-15T07:25:27;46.92;;;18.10;;
50102;SDS011;35993;52.604;10.078;2022-10-15T07:27:53;43.08;;;16.85;;
50102;SDS011;35993;52.604;10.078;2022-10-15T07:30:21;47.80;;;17.83;;
50102;SDS011;35993;52.604;10.078;2022-10-15T07:32:50;45.03;;;17.13;;
50102;SDS011;35993;52.604;10.078;2022-10-15T07:35:15;43.88;;;17.10;;
50102;SDS011;35993;52.604;10.078;2022-10-15T07:37:44;48.75;;;18.33;;
50102;SDS011;35993;52.604;10.078;2022-10-15T07:40:11;51.58;;;19.92;;
50102;SDS011;35993;52.604;10.078;2022-10-15T07:42:37;43.45;;;17.60;;
50102;SDS011;35993;52.604;10.078;2022-10-15T07:45:02;46.38;;;17.90;;
50102;SDS011;35993;52.604;10.078;2022-10-15T07:47:28;46.25;;;18.33;;
50102;SDS011;35993;52.604;10.078;2022-10-15T07:49:54;43.35;;;18.52;;
50102;SDS011;35993;52.604;10.078;2022-10-15T07:52:22;49.17;;;18.88;;
50102;SDS011;35993;52.604;10.078;2022-10-15T07:54:48;42.00;;;16.95;;
50102;SDS011;35993;52.604;10.078;2022-10-15T07:57:15;46.00;;;17.70;;
50102;SDS011;35993;52.604;10.078;2022-10-15T07:59:41;44.35;;;18.27;;
50102;SDS011;35993;52.604;10.078;2022-10-15T08:02:10;46.20;;;18.40;;
50102;SDS011;35993;52.604;10.078;2022-10-15T08:04:40;38.20;;;16.80;;
50102;SDS011;35993;52.604;10.078;2022-10-15T08:07:08;43.13;;;17.48;;
50102;SDS011;35993;52.604;10.078;2022-10-15T08:09:38;48.20;;;18.92;;
50102;SDS011;35993;52.604;10.078;2022-10-15T08:12:04;40.42;;;17.85;;
50102;SDS011;35993;52.604;10.078;2022-10-15T08:14:34;46.58;;;19.10;;
50102;SDS011;35993;52.604;10.078;2022-10-15T08:17:03;42.10;;;18.65;;
50102;SDS011;35993;52.604;10.078;2022-10-15T08:19:30;37.65;;;18.42;;
50102;SDS011;35993;52.604;10.078;2022-10-15T08:21:55;44.10;;;18.73;;
50102;SDS011;35993;52.604;10.078;2022-10-15T08:24:22;38.33;;;17.02;;
50102;SDS011;35993;52.604;10.078;2022-10-15T08:27:17;44.95;;;18.63;;
50102;SDS011;35993;52.604;10.078;2022-10-15T08:29:45;39.67;;;18.08;;
50102;SDS011;35993;52.604;10.078;2022-10-15T08:32:11;42.47;;;19.10;;
50102;SDS011;35993;52.604;10.078;2022-10-15T08:34:37;41.10;;;19.08;;
50102;SDS011;35993;52.604;10.078;2022-10-15T08:37:02;41.65;;;19.55;;
50102;SDS011;35993;52.604;10.078;2022-10-15T08:39:28;38.40;;;20.20;;
50102;SDS011;35993;52.604;10.078;2022-10-15T08:41:54;41.13;;;19.00;;
50102;SDS011;35993;52.604;10.078;2022-10-15T08:44:30;39.90;;;19.02;;
50102;SDS011;35993;52.604;10.078;2022-10-15T08:50:16;40.47;;;19.23;;
50102;SDS011;35993;52.604;10.078;2022-10-15T08:53:21;36.83;;;18.30;;
50102;SDS011;35993;52.604;10.078;2022-10-15T08:55:54;40.08;;;18.67;;
50102;SDS011;35993;52.604;10.078;2022-10-15T08:58:42;42.50;;;19.35;;
50102;SDS011;35993;52.604;10.078;2022-10-15T09:01:35;40.17;;;18.58;;
50102;SDS011;35993;52.604;10.078;2022-10-15T09:07:12;36.85;;;18.38;;
50102;SDS011;35993;52.604;10.078;2022-10-15T09:09:47;35.58;;;18.35;;
50102;SDS011;35993;52.604;10.078;2022-10-15T09:15:09;35.95;;;18.55;;
50102;SDS011;35993;52.604;10.078;2022-10-15T09:17:42;34.42;;;17.45;;
50102;SDS011;35993;52.604;10.078;2022-10-15T09:20:15;37.63;;;17.75;;
50102;SDS011;35993;52.604;10.078;2022-10-15T09:22:52;35.85;;;18.80;;
50102;SDS011;35993;52.604;10.078;2022-10-15T09:25:19;36.55;;;18.30;;
50102;SDS011;35993;52.604;10.078;2022-10-15T09:27:48;33.85;;;17.98;;
50102;SDS011;35993;52.604;10.078;2022-10-15T09:38:57;30.13;;;16.00;;
50102;SDS011;35993;52.604;10.078;2022-10-15T09:41:42;30.70;;;16.75;;
50102;SDS011;35993;52.604;10.078;2022-10-15T09:44:35;32.78;;;16.40;;
50102;SDS011;35993;52.604;10.078;2022-10-15T09:47:13;28.38;;;16.05;;
50102;SDS011;35993;52.604;10.078;2022-10-15T09:50:05;30.02;;;16.60;;
50102;SDS011;35993;52.604;10.078;2022-10-15T09:55:50;31.25;;;16.50;;
50102;SDS011;35993;52.604;10.078;2022-10-15T09:58:29;35.13;;;17.27;;
50102;SDS011;35993;52.604;10.078;2022-10-15T10:01:03;28.75;;;16.08;;
50102;SDS011;35993;52.604;10.078;2022-10-15T10:03:38;30.00;;;15.52;;
50102;SDS011;35993;52.604;10.078;2022-10-15T10:06:08;31.05;;;16.92;;
50102;SDS011;35993;52.604;10.078;2022-10-15T10:08:45;27.35;;;16.05;;
50102;SDS011;35993;52.604;10.078;2022-10-15T10:11:16;32.80;;;17.52;;
50102;SDS011;35993;52.604;10.078;2022-10-15T10:13:45;28.92;;;16.20;;
50102;SDS011;35993;52.604;10.078;2022-10-15T10:16:17;32.72;;;17.02;;
50102;SDS011;35993;52.604;10.078;2022-10-15T10:18:44;31.83;;;17.35;;
50102;SDS011;35993;52.604;10.078;2022-10-15T10:21:31;26.17;;;15.00;;
50102;SDS011;35993;52.604;10.078;2022-10-15T10:24:16;34.70;;;16.67;;
50102;SDS011;35993;52.604;10.078;2022-10-15T10:26:42;30.25;;;16.52;;
50102;SDS011;35993;52.604;10.078;2022-10-15T10:29:10;27.42;;;16.23;;
50102;SDS011;35993;52.604;10.078;2022-10-15T10:31:43;29.50;;;16.52;;
50102;SDS011;35993;52.604;10.078;2022-10-15T10:34:27;34.97;;;18.38;;
50102;SDS011;35993;52.604;10.078;2022-10-15T10:37:09;31.00;;;16.88;;
50102;SDS011;35993;52.604;10.078;2022-10-15T10:39:36;30.88;;;17.38;;
50102;SDS011;35993;52.604;10.078;2022-10-15T10:42:44;26.17;;;15.90;;
50102;SDS011;35993;52.604;10.078;2022-10-15T10:45:10;27.55;;;16.73;;
50102;SDS011;35993;52.604;10.078;2022-10-15T10:47:45;29.52;;;16.35;;
50102;SDS011;35993;52.604;10.078;2022-10-15T10:50:35;28.13;;;16.40;;
50102;SDS011;35993;52.604;10.078;2022-10-15T10:53:22;27.60;;;16.45;;
50102;SDS011;35993;52.604;10.078;2022-10-15T10:55:53;27.35;;;16.55;;
50102;SDS011;35993;52.604;10.078;2022-10-15T10:58:26;25.45;;;15.65;;
50102;SDS011;35993;52.604;10.078;2022-10-15T11:00:59;24.63;;;15.50;;
50102;SDS011;35993;52.604;10.078;2022-10-15T11:03:31;25.67;;;16.02;;
50102;SDS011;35993;52.604;10.078;2022-10-15T11:09:15;26.80;;;16.98;;
50102;SDS011;35993;52.604;10.078;2022-10-15T11:12:20;22.52;;;14.45;;
50102;SDS011;35993;52.604;10.078;2022-10-15T11:15:04;20.27;;;11.73;;
50102;SDS011;35993;52.604;10.078;2022-10-15T11:34:39;14.65;;;8.40;;
50102;SDS011;35993;52.604;10.078;2022-10-15T11:40:45;13.20;;;9.00;;
50102;SDS011;35993;52.604;10.078;2022-10-15T11:43:17;8.23;;;6.00;;
50102;SDS011;35993;52.604;10.078;2022-10-15T11:51:13;8.82;;;5.35;;
50102;SDS011;35993;52.604;10.078;2022-10-15T11:56:29;6.55;;;5.40;;
50102;SDS011;35993;52.604;10.078;2022-10-15T12:01:46;7.60;;;5.10;;
50102;SDS011;35993;52.604;10.078;2022-10-15T12:04:37;7.25;;;5.32;;
50102;SDS011;35993;52.604;10.078;2022-10-15T12:07:06;6.80;;;4.80;;
50102;SDS011;35993;52.604;10.078;2022-10-15T12:09:41;9.40;;;5.68;;
50102;SDS011;35993;52.604;10.078;2022-10-15T12:17:21;8.50;;;5.57;;
50102;SDS011;35993;52.604;10.078;2022-10-15T12:19:58;7.28;;;4.80;;
50102;SDS011;35993;52.604;10.078;2022-10-15T12:23:17;7.28;;;4.90;;
50102;SDS011;35993;52.604;10.078;2022-10-15T12:28:11;10.10;;;6.07;;
50102;SDS011;35993;52.604;10.078;2022-10-15T12:30:37;7.35;;;5.45;;
50102;SDS011;35993;52.604;10.078;2022-10-15T12:33:28;7.72;;;5.90;;
50102;SDS011;35993;52.604;10.078;2022-10-15T12:39:00;8.50;;;5.88;;
50102;SDS011;35993;52.604;10.078;2022-10-15T12:41:36;7.55;;;5.35;;
50102;SDS011;35993;52.604;10.078;2022-10-15T12:44:14;8.63;;;5.18;;
50102;SDS011;35993;52.604;10.078;2022-10-15T12:46:52;7.70;;;5.68;;
50102;SDS011;35993;52.604;10.078;2022-10-15T12:52:02;8.80;;;5.90;;
50102;SDS011;35993;52.604;10.078;2022-10-15T12:55:48;7.47;;;5.53;;
50102;SDS011;35993;52.604;10.078;2022-10-15T12:57:52;7.68;;;5.50;;
50102;SDS011;35993;52.604;10.078;2022-10-15T13:02:52;6.85;;;4.88;;
50102;SDS011;35993;52.604;10.078;2022-10-15T13:05:24;10.05;;;4.90;;
50102;SDS011;35993;52.604;10.078;2022-10-15T13:07:59;5.93;;;4.43;;
50102;SDS011;35993;52.604;10.078;2022-10-15T13:10:28;8.43;;;4.90;;
50102;SDS011;35993;52.604;10.078;2022-10-15T13:13:00;5.95;;;4.45;;
50102;SDS011;35993;52.604;10.078;2022-10-15T13:15:28;6.45;;;5.10;;
50102;SDS011;35993;52.604;10.078;2022-10-15T13:17:56;6.13;;;4.70;;
50102;SDS011;35993;52.604;10.078;2022-10-15T13:25:50;6.03;;;4.28;;
50102;SDS011;35993;52.604;10.078;2022-10-15T13:28:26;5.18;;;3.63;;
50102;SDS011;35993;52.604;10.078;2022-10-15T13:31:06;5.57;;;3.72;;
50102;SDS011;35993;52.604;10.078;2022-10-15T13:33:54;5.45;;;3.67;;
50102;SDS011;35993;52.604;10.078;2022-10-15T13:36:25;5.63;;;3.60;;
50102;SDS011;35993;52.604;10.078;2022-10-15T13:38:58;5.20;;;3.28;;
50102;SDS011;35993;52.604;10.078;2022-10-15T13:41:30;5.82;;;3.53;;
50102;SDS011;35993;52.604;10.078;2022-10-15T13:43:59;4.22;;;3.78;;
50102;SDS011;35993;52.604;10.078;2022-10-15T13:46:28;4.22;;;3.40;;
50102;SDS011;35993;52.604;10.078;2022-10-15T13:48:58;4.63;;;3.65;;
50102;SDS011;35993;52.604;10.078;2022-10-15T13:51:34;5.00;;;3.30;;
50102;SDS011;35993;52.604;10.078;2022-10-15T13:54:07;9.85;;;4.47;;
50102;SDS011;35993;52.604;10.078;2022-10-15T13:56:55;10.43;;;4.22;;
50102;SDS011;35993;52.604;10.078;2022-10-15T13:59:23;3.88;;;2.90;;
50102;SDS011;35993;52.604;10.078;2022-10-15T14:01:58;5.10;;;3.30;;
50102;SDS011;35993;52.604;10.078;2022-10-15T14:04:30;4.90;;;3.17;;
50102;SDS011;35993;52.604;10.078;2022-10-15T14:09:42;5.35;;;3.20;;
50102;SDS011;35993;52.604;10.078;2022-10-15T14:12:10;4.53;;;3.38;;
50102;SDS011;35993;52.604;10.078;2022-10-15T14:14:37;3.90;;;2.97;;
50102;SDS011;35993;52.604;10.078;2022-10-15T14:17:26;5.13;;;3.00;;
50102;SDS011;35993;52.604;10.078;2022-10-15T14:19:54;4.00;;;3.00;;
50102;SDS011;35993;52.604;10.078;2022-10-15T14:22:22;4.65;;;2.72;;
50102;SDS011;35993;52.604;10.078;2022-10-15T14:24:54;3.95;;;2.95;;
50102;SDS011;35993;52.604;10.078;2022-10-15T14:27:21;5.63;;;3.15;;
50102;SDS011;35993;52.604;10.078;2022-10-15T14:29:49;4.28;;;2.75;;
50102;SDS011;35993;52.604;10.078;2022-10-15T14:32:27;5.15;;;2.95;;
50102;SDS011;35993;52.604;10.078;2022-10-15T14:35:22;5.35;;;3.00;;
50102;SDS011;35993;52.604;10.078;2022-10-15T14:37:57;3.72;;;3.05;;
50102;SDS011;35993;52.604;10.078;2022-10-15T14:40:39;3.60;;;2.67;;
50102;SDS011;35993;52.604;10.078;2022-10-15T14:43:14;3.60;;;2.70;;
50102;SDS011;35993;52.604;10.078;2022-10-15T14:45:52;5.63;;;2.90;;
50102;SDS011;35993;52.604;10.078;2022-10-15T14:48:31;5.50;;;2.80;;
50102;SDS011;35993;52.604;10.078;2022-10-15T14:51:02;4.15;;;2.58;;
50102;SDS011;35993;52.604;10.078;2022-10-15T14:53:30;3.90;;;2.67;;
50102;SDS011;35993;52.604;10.078;2022-10-15T14:56:34;4.22;;;2.50;;
50102;SDS011;35993;52.604;10.078;2022-10-15T14:58:58;2.72;;;2.10;;
50102;SDS011;35993;52.604;10.078;2022-10-15T15:01:25;3.70;;;2.63;;
50102;SDS011;35993;52.604;10.078;2022-10-15T15:03:52;3.60;;;2.50;;
50102;SDS011;35993;52.604;10.078;2022-10-15T15:06:19;3.45;;;2.35;;
50102;SDS011;35993;52.604;10.078;2022-10-15T15:08:45;3.35;;;2.35;;
50102;SDS011;35993;52.604;10.078;2022-10-15T15:11:18;3.10;;;2.35;;
50102;SDS011;35993;52.604;10.078;2022-10-15T15:13:47;3.88;;;2.65;;
50102;SDS011;35993;52.604;10.078;2022-10-15T15:16:15;3.13;;;2.53;;
50102;SDS011;35993;52.604;10.078;2022-10-15T15:18:44;3.90;;;2.30;;
50102;SDS011;35993;52.604;10.078;2022-10-15T15:21:16;3.42;;;2.50;;
50102;SDS011;35993;52.604;10.078;2022-10-15T15:23:45;3.70;;;1.98;;
50102;SDS011;35993;52.604;10.078;2022-10-15T15:26:12;2.75;;;1.98;;
50102;SDS011;35993;52.604;10.078;2022-10-15T15:28:38;3.55;;;2.20;;
50102;SDS011;35993;52.604;10.078;2022-10-15T15:31:05;2.97;;;1.98;;
50102;SDS011;35993;52.604;10.078;2022-10-15T15:33:32;3.08;;;2.20;;
50102;SDS011;35993;52.604;10.078;2022-10-15T15:38:33;4.30;;;2.42;;
50102;SDS011;35993;52.604;10.078;2022-10-15T15:41:02;2.30;;;1.55;;
50102;SDS011;35993;52.604;10.078;2022-10-15T15:43:34;3.28;;;1.83;;
50102;SDS011;35993;52.604;10.078;2022-10-15T15:46:00;3.03;;;1.90;;
50102;SDS011;35993;52.604;10.078;2022-10-15T15:48:28;5.20;;;1.70;;
50102;SDS011;35993;52.604;10.078;2022-10-15T15:50:55;2.60;;;1.70;;
50102;SDS011;35993;52.604;10.078;2022-10-15T15:55:51;3.10;;;1.75;;
50102;SDS011;35993;52.604;10.078;2022-10-15T15:58:16;2.97;;;1.70;;
50102;SDS011;35993;52.604;10.078;2022-10-15T16:00:42;2.40;;;1.60;;
50102;SDS011;35993;52.604;10.078;2022-10-15T16:03:09;2.58;;;1.48;;
50102;SDS011;35993;52.604;10.078;2022-10-15T16:05:37;2.45;;;1.60;;
50102;SDS011;35993;52.604;10.078;2022-10-15T16:08:05;1.70;;;1.30;;
50102;SDS011;35993;52.604;10.078;2022-10-15T16:10:31;2.38;;;1.65;;
50102;SDS011;35993;52.604;10.078;2022-10-15T16:12:57;2.97;;;1.23;;
50102;SDS011;35993;52.604;10.078;2022-10-15T16:15:23;1.88;;;1.25;;
50102;SDS011;35993;52.604;10.078;2022-10-15T16:17:48;1.80;;;1.17;;
50102;SDS011;35993;52.604;10.078;2022-10-15T16:20:34;1.00;;;0.90;;
50102;SDS011;35993;52.604;10.078;2022-10-15T16:23:03;1.45;;;1.00;;
50102;SDS011;35993;52.604;10.078;2022-10-15T16:25:29;1.50;;;1.10;;
50102;SDS011;35993;52.604;10.078;2022-10-15T16:27:55;1.10;;;1.00;;
50102;SDS011;35993;52.604;10.078;2022-10-15T16:30:21;1.75;;;1.20;;
50102;SDS011;35993;52.604;10.078;2022-10-15T16:32:47;1.50;;;0.95;;
50102;SDS011;35993;52.604;10.078;2022-10-15T16:35:14;3.10;;;0.90;;
50102;SDS011;35993;52.604;10.078;2022-10-15T16:37:39;2.03;;;1.33;;